Time;durP1;ratioP1;P1;durP2;ratioP2;P2;SDS_P1;SDS_P2;PMS_P1;PMS_P2;Temp;Humidity;BMP_temperature;BMP_pressure;BME280_temperature;BME280_humidity;BME280_pressure;Samples;Min_cycle;Max_cycle;Signal;HPM_P1;HPM_P2
2023/03/02 04:57:45;;;;;;;21.65;12.40;;;;;;;3.63;68.20;101016.84;5611474;31;127120;-54
2023/03/02 05:00:48;;;;;;;22.00;12.80;;;;;;;3.63;68.20;101016.84;5602207;31;33396;-54
2023/03/02 05:03:51;;;;;;;21.12;13.62;;;;;;;3.10;72.76;101023.37;5603413;31;33138;-55
2023/03/02 05:06:54;;;;;;;17.98;12.27;;;;;;;3.27;74.77;101018.38;5603195;31;34272;-55
2023/03/02 05:09:56;;;;;;;23.70;13.38;;;;;;;3.28;79.51;101022.66;5603266;31;33988;-55
2023/03/02 05:13:03;;;;;;;22.27;12.98;;;;;;;3.22;70.61;101016.37;5602772;31;34368;-55
2023/03/02 05:16:06;;;;;;;22.77;12.73;;;;;;;3.40;90.33;101020.09;5603216;31;34327;-54
2023/03/02 05:19:10;;;;;;;21.23;13.20;;;;;;;3.38;69.94;101016.84;5603374;31;34159;-55
2023/03/02 05:22:13;;;;;;;22.37;12.52;;;;;;;3.34;72.16;101024.41;5602726;31;34963;-55
2023/03/02 05:25:16;;;;;;;26.35;14.20;;;;;;;3.24;76.25;101024.91;5603103;31;34332;-54
2023/03/02 05:28:19;;;;;;;21.02;13.55;;;;;;;3.52;67.78;101029.78;5602841;31;33649;-55
2023/03/02 05:31:25;;;;;;;21.50;14.40;;;;;;;3.56;80.56;101038.09;5602930;31;33646;-54
2023/03/02 05:34:27;;;;;;;23.70;14.77;;;;;;;3.61;66.57;101026.84;5603290;31;34263;-54
2023/03/02 05:37:30;;;;;;;22.13;14.85;;;;;;;3.61;65.51;101038.28;5603064;31;33670;-55
2023/03/02 05:40:32;;;;;;;24.63;15.55;;;;;;;3.75;97.40;101033.66;5603057;31;34191;-55
2023/03/02 05:43:35;;;;;;;25.20;14.30;;;;;;;3.66;76.07;101032.31;5602854;31;33878;-54
2023/03/02 05:46:37;;;;;;;24.45;15.88;;;;;;;3.65;67.66;101028.84;5602560;31;33569;-55
2023/03/02 05:49:39;;;;;;;22.17;13.57;;;;;;;3.72;67.28;101034.91;5602829;31;34397;-55
2023/03/02 05:52:41;;;;;;;23.92;14.70;;;;;;;3.67;65.64;101042.69;5602212;31;33393;-55
2023/03/02 05:55:44;;;;;;;21.58;13.73;;;;;;;3.58;84.57;101048.50;5602365;31;33554;-55
2023/03/02 05:58:46;;;;;;;20.12;13.48;;;;;;;3.76;66.19;101049.34;5602803;31;34198;-55
2023/03/02 06:01:49;;;;;;;27.33;14.15;;;;;;;3.89;65.16;101050.25;5601668;31;33697;-54
2023/03/02 06:04:51;;;;;;;23.58;14.30;;;;;;;4.06;73.15;101055.78;5602058;31;33599;-54
2023/03/02 06:07:53;;;;;;;21.65;13.43;;;;;;;3.85;76.23;101055.19;5594522;31;34276;-54
2023/03/02 06:10:56;;;;;;;24.25;15.43;;;;;;;3.71;67.59;101046.53;5589063;31;33629;-55
2023/03/02 06:13:59;;;;;;;24.50;14.45;;;;;;;3.95;92.07;101060.78;5587792;31;33258;-54
2023/03/02 06:17:03;;;;;;;24.27;14.48;;;;;;;3.86;67.84;101062.09;5587923;31;33553;-54
2023/03/02 06:20:09;;;;;;;20.90;13.65;;;;;;;3.94;65.46;101061.00;5589175;31;33698;-55
2023/03/02 06:23:12;;;;;;;19.87;14.13;;;;;;;3.98;68.73;101056.91;5588998;31;34319;-55
2023/03/02 06:26:15;;;;;;;22.90;14.00;;;;;;;4.43;75.24;101062.72;5569480;32;34453;-55
2023/03/02 06:29:17;;;;;;;20.70;13.65;;;;;;;4.48;65.22;101054.09;5568477;32;33672;-55
2023/03/02 06:32:20;;;;;;;25.00;14.18;;;;;;;4.38;66.08;101051.97;5569577;32;33647;-55
2023/03/02 06:35:22;;;;;;;28.60;15.30;;;;;;;4.41;77.20;101066.66;5582652;31;33629;-55
2023/03/02 06:38:25;;;;;;;21.87;13.20;;;;;;;4.51;66.25;101074.88;5588813;31;34385;-55
2023/03/02 06:41:27;;;;;;;30.90;14.13;;;;;;;4.72;75.90;101079.72;5589217;31;34404;-57
2023/03/02 06:44:30;;;;;;;20.42;13.35;;;;;;;4.82;71.94;101081.84;5587999;31;34327;-57
2023/03/02 06:47:32;;;;;;;24.58;13.40;;;;;;;4.98;64.89;101074.28;5587896;31;33600;-57
2023/03/02 06:50:35;;;;;;;28.67;13.27;;;;;;;5.03;66.93;101077.87;5587712;31;33723;-56
2023/03/02 06:53:37;;;;;;;21.33;10.50;;;;;;;5.22;65.05;101080.47;5588573;31;34286;-57
2023/03/02 06:56:39;;;;;;;13.73;9.55;;;;;;;5.55;56.51;101082.62;5588093;31;33636;-57
2023/03/02 06:59:42;;;;;;;15.63;8.95;;;;;;;5.79;51.24;101084.25;5588579;31;34302;-55
2023/03/02 07:02:45;;;;;;;18.92;8.52;;;;;;;6.28;71.55;101087.50;5588359;31;33584;-55
2023/03/02 07:05:48;;;;;;;12.30;8.25;;;;;;;6.53;57.19;101083.78;5587467;31;34389;-55
2023/03/02 07:08:51;;;;;;;16.10;8.40;;;;;;;6.58;49.69;101082.00;5578592;31;34408;-55
2023/03/02 07:11:53;;;;;;;12.18;7.87;;;;;;;6.81;49.56;101082.97;5578934;31;34273;-55
2023/03/02 07:14:55;;;;;;;10.95;7.32;;;;;;;7.01;43.93;101077.22;5580815;31;33624;-55
2023/03/02 07:17:58;;;;;;;12.52;7.87;;;;;;;7.12;61.72;101081.69;5581180;31;33533;-55
2023/03/02 07:21:01;;;;;;;14.07;7.95;;;;;;;7.20;44.10;101075.94;5575588;31;33836;-55
2023/03/02 07:24:03;;;;;;;12.93;8.55;;;;;;;7.14;44.37;101079.56;5578159;31;33538;-55
2023/03/02 07:27:06;;;;;;;11.82;8.18;;;;;;;7.19;48.27;101079.69;5583099;31;34172;-55
2023/03/02 07:30:09;;;;;;;14.93;9.35;;;;;;;7.71;61.33;101083.97;5573918;31;34317;-55
2023/03/02 07:33:11;;;;;;;13.35;8.52;;;;;;;7.81;55.39;101086.78;5578053;31;34339;-55
2023/03/02 07:36:14;;;;;;;16.73;9.50;;;;;;;7.89;45.19;101072.25;5584769;31;33794;-55
2023/03/02 07:39:17;;;;;;;16.98;9.02;;;;;;;8.06;52.70;101080.22;5575827;31;34432;-55
2023/03/02 07:42:20;;;;;;;13.70;8.57;;;;;;;8.28;55.61;101077.56;5576282;31;33555;-55
2023/03/02 07:45:24;;;;;;;16.27;8.88;;;;;;;8.43;48.90;101080.47;5570607;31;32943;-55
2023/03/02 07:48:26;;;;;;;19.83;9.73;;;;;;;8.18;42.63;101078.25;5576376;31;34380;-55
2023/03/02 07:51:29;;;;;;;14.18;9.02;;;;;;;8.36;61.59;101077.16;5587677;31;33661;-55
2023/03/02 07:54:32;;;;;;;14.87;9.25;;;;;;;8.47;56.46;101070.87;5573149;31;33699;-55
2023/03/02 07:57:34;;;;;;;17.77;9.02;;;;;;;8.50;44.69;101070.38;5573267;31;33709;-55
2023/03/02 08:00:38;;;;;;;16.08;9.10;;;;;;;8.53;48.42;101069.91;5571130;31;34521;-55
2023/03/02 08:03:43;;;;;;;13.35;8.73;;;;;;;8.57;47.04;101064.84;5577318;31;33695;-55
2023/03/02 08:06:46;;;;;;;15.40;8.95;;;;;;;8.73;63.50;101071.19;5570745;31;34092;-55
2023/03/02 08:09:49;;;;;;;15.95;9.45;;;;;;;8.80;53.54;101071.81;5581453;31;33555;-55
2023/03/02 08:12:51;;;;;;;12.18;9.02;;;;;;;8.74;51.97;101072.78;5584736;31;34063;-55
2023/03/02 08:16:00;;;;;;;14.32;8.65;;;;;;;8.93;60.29;101074.06;5587243;31;33260;-55
2023/03/02 08:19:03;;;;;;;13.65;9.23;;;;;;;8.89;45.01;101067.63;5572894;31;33121;-55
2023/03/02 08:22:05;;;;;;;16.00;9.05;;;;;;;9.11;61.82;101080.97;5567858;32;33589;-55
2023/03/02 08:25:07;;;;;;;18.62;9.18;;;;;;;9.22;52.19;101076.50;5573587;31;33573;-55
2023/03/02 08:28:10;;;;;;;13.70;8.98;;;;;;;9.21;67.15;101081.06;5587398;31;34452;-55
2023/03/02 08:31:13;;;;;;;14.02;9.07;;;;;;;9.11;45.81;101064.91;5574153;31;33801;-55
2023/03/02 08:34:15;;;;;;;13.45;9.05;;;;;;;9.29;57.38;101064.53;5566358;31;32463;-55
2023/03/02 08:37:18;;;;;;;16.48;9.10;;;;;;;9.28;53.79;101060.25;5581555;31;34248;-55
2023/03/02 08:40:20;;;;;;;13.57;8.43;;;;;;;9.28;54.38;101060.25;5569565;31;33655;-55
2023/03/02 08:43:24;;;;;;;18.98;9.65;;;;;;;9.45;51.72;101062.78;5576529;31;34433;-55
2023/03/02 08:46:26;;;;;;;12.98;9.48;;;;;;;9.56;60.76;101058.31;5574914;31;33719;-55
2023/03/02 08:49:29;;;;;;;16.60;9.30;;;;;;;9.59;51.21;101055.91;5576303;31;33709;-55
2023/03/02 08:52:33;;;;;;;18.87;9.30;;;;;;;9.37;51.63;101053.38;5571352;31;33781;-55
2023/03/02 08:55:36;;;;;;;14.13;8.90;;;;;;;9.45;43.18;101051.28;5566008;32;35714;-55
2023/03/02 08:58:40;;;;;;;14.82;9.18;;;;;;;9.47;51.35;101049.12;5586518;31;33703;-55
2023/03/02 09:01:42;;;;;;;16.02;10.38;;;;;;;9.41;40.94;101050.97;5574233;31;34287;-55
2023/03/02 09:04:45;;;;;;;15.38;9.25;;;;;;;9.38;49.47;101043.47;5579772;31;33627;-55
2023/03/02 09:07:49;;;;;;;13.65;9.45;;;;;;;9.68;52.89;101050.09;5586864;31;33571;-55
2023/03/02 09:10:51;;;;;;;13.88;9.60;;;;;;;9.43;63.63;101037.34;5586502;31;33563;-55
2023/03/02 09:13:55;;;;;;;16.95;10.02;;;;;;;9.72;51.96;101035.94;5579861;31;33160;-55
2023/03/02 09:16:57;;;;;;;15.82;8.45;;;;;;;9.77;40.65;101037.84;5579467;31;33626;-55
2023/03/02 09:20:00;;;;;;;14.05;9.70;;;;;;;9.75;57.89;101037.28;5585740;31;34438;-55
2023/03/02 09:23:02;;;;;;;16.70;9.57;;;;;;;9.82;43.74;101036.00;5579863;31;33810;-55
2023/03/02 09:26:04;;;;;;;13.60;8.98;;;;;;;9.76;49.17;101028.19;5576434;31;33177;-55
2023/03/02 09:29:08;;;;;;;17.37;8.70;;;;;;;9.65;40.95;101028.12;5567445;31;33577;-55
2023/03/02 09:32:12;;;;;;;13.25;8.70;;;;;;;9.94;62.18;101030.44;5566919;31;33693;-55
2023/03/02 09:35:15;;;;;;;12.93;9.13;;;;;;;9.89;42.13;101030.41;5569898;31;33718;-55
2023/03/02 09:38:17;;;;;;;13.32;8.10;;;;;;;9.77;40.04;101027.94;5578090;31;33855;-55
2023/03/02 09:41:20;;;;;;;11.93;7.90;;;;;;;9.86;49.22;101022.91;5575385;31;33601;-55
2023/03/02 09:45:13;;;;;;;18.80;7.62;;;;;;;10.49;61.29;101021.06;5581656;31;34815;-55
2023/03/02 09:48:36;;;;;;;12.27;7.80;;;;;;;10.15;41.22;101019.84;5583268;31;33941;-55
2023/03/02 09:51:56;;;;;;;15.43;8.55;;;;;;;10.22;41.24;101013.16;5580524;31;33281;-56
2023/03/02 09:55:12;;;;;;;12.18;7.75;;;;;;;10.30;43.96;101014.56;5575811;31;33746;-55
2023/03/02 09:58:18;;;;;;;15.32;7.55;;;;;;;10.29;40.28;101011.06;5579383;31;34332;-57
2023/03/02 10:01:33;;;;;;;10.23;6.93;;;;;;;10.25;41.05;101012.63;5582627;31;34464;-55
2023/03/02 10:04:43;;;;;;;13.50;7.65;;;;;;;10.29;43.55;101003.03;5583311;31;33690;-56
2023/03/02 10:07:46;;;;;;;11.15;6.53;;;;;;;10.61;55.54;101010.09;5576753;31;33629;-55
2023/03/02 10:11:22;;;;;;;11.63;7.18;;;;;;;10.50;43.33;101000.44;5580943;31;32874;-55
2023/03/02 10:14:37;;;;;;;9.90;6.72;;;;;;;10.56;40.26;101000.19;5545505;31;33891;-55
2023/03/02 10:18:09;;;;;;;11.57;6.95;;;;;;;10.43;45.79;100995.31;5581963;31;34064;-55
2023/03/02 10:21:21;;;;;;;13.98;8.15;;;;;;;10.67;45.77;101000.19;5579106;31;33749;-55
2023/03/02 10:24:38;;;;;;;12.85;6.78;;;;;;;10.35;44.08;100993.94;5582197;31;33720;-55
2023/03/02 10:27:48;;;;;;;10.60;6.75;;;;;;;10.81;53.21;100994.03;5579481;31;33401;-56
2023/03/02 10:31:08;;;;;;;10.57;7.43;;;;;;;10.96;45.27;100993.28;5582829;31;33346;-55
2023/03/02 10:34:10;;;;;;;16.40;6.70;;;;;;;10.71;40.45;100990.53;5584205;31;34536;-55
2023/03/02 10:37:17;;;;;;;13.35;7.32;;;;;;;10.75;46.89;100983.56;5579148;31;34365;-56
2023/03/02 10:40:58;;;;;;;9.80;6.70;;;;;;;10.81;41.15;100991.38;5576999;31;33743;-56
2023/03/02 10:44:07;;;;;;;18.35;7.60;;;;;;;11.07;51.37;100977.97;5577761;31;33744;-56
2023/03/02 10:47:25;;;;;;;13.40;6.68;;;;;;;11.08;42.95;100976.88;5579769;31;34430;-56
2023/03/02 10:50:29;;;;;;;10.27;7.20;;;;;;;11.24;46.42;100975.81;5582476;31;32058;-56
2023/03/02 10:53:32;;;;;;;11.85;7.40;;;;;;;11.22;53.16;100972.56;5581416;31;33325;-56
2023/03/02 10:56:34;;;;;;;10.90;7.10;;;;;;;11.20;41.78;100963.22;5581649;31;32174;-55
2023/03/02 10:59:42;;;;;;;11.25;7.75;;;;;;;11.26;47.66;100954.88;5584098;31;34385;-56
2023/03/02 11:02:55;;;;;;;10.38;7.53;;;;;;;11.29;45.57;100948.97;5583173;31;34421;-56
2023/03/02 11:06:15;;;;;;;14.43;8.00;;;;;;;11.47;66.92;100950.28;5576057;31;34050;-56
2023/03/02 11:09:18;;;;;;;11.95;7.80;;;;;;;11.42;49.58;100942.25;5584463;31;33713;-56
2023/03/02 11:12:20;;;;;;;11.57;7.75;;;;;;;11.43;44.32;100943.06;5582779;31;34004;-56
2023/03/02 11:15:39;;;;;;;12.18;7.32;;;;;;;11.44;53.94;100944.66;5583693;31;33725;-56
2023/03/02 11:19:10;;;;;;;9.95;7.10;;;;;;;11.56;52.96;100936.31;5584480;31;33934;-55
2023/03/02 11:22:31;;;;;;;10.55;7.28;;;;;;;11.79;62.45;100933.00;5556841;31;32066;-56
2023/03/02 11:25:39;;;;;;;11.20;7.15;;;;;;;11.66;52.28;100936.28;5580920;31;33904;-56
2023/03/02 11:28:47;;;;;;;10.68;6.85;;;;;;;11.67;52.29;100927.12;5581102;31;33717;-56
2023/03/02 11:31:54;;;;;;;13.75;7.85;;;;;;;11.73;51.73;100931.41;5582153;31;34114;-56
2023/03/02 11:35:12;;;;;;;11.77;7.87;;;;;;;11.84;53.02;100927.63;5584267;31;33458;-56
2023/03/02 11:38:53;;;;;;;10.70;6.97;;;;;;;11.94;61.73;100927.59;5579522;31;34356;-56
2023/03/02 11:41:57;;;;;;;13.90;8.23;;;;;;;12.03;53.84;100924.34;5501708;31;34224;-56
2023/03/02 11:45:10;;;;;;;13.77;8.05;;;;;;;11.96;53.15;100913.91;5584426;31;33251;-56
2023/03/02 11:48:28;;;;;;;16.83;9.00;;;;;;;11.97;47.56;100920.88;5577040;31;33483;-56
2023/03/02 11:51:37;;;;;;;13.43;9.05;;;;;;;11.89;49.55;100914.19;5576845;31;33866;-56
2023/03/02 11:55:02;;;;;;;13.82;9.10;;;;;;;11.93;47.27;100907.19;5577569;31;33739;-56
2023/03/02 11:58:05;;;;;;;10.98;7.70;;;;;;;12.00;48.06;100898.81;5579115;31;33793;-56
2023/03/02 12:01:16;;;;;;;12.80;8.38;;;;;;;11.99;56.44;100910.66;5578052;31;32339;-55
2023/03/02 12:04:37;;;;;;;14.10;8.10;;;;;;;12.04;47.58;100901.75;5583812;31;33316;-56
2023/03/02 12:07:40;;;;;;;12.02;7.90;;;;;;;12.19;50.29;100902.47;5576846;31;34413;-56
2023/03/02 12:11:14;;;;;;;12.23;8.18;;;;;;;12.01;47.48;100896.94;5575465;31;33780;-56
2023/03/02 12:14:46;;;;;;;12.10;7.82;;;;;;;12.02;48.51;100893.97;5579044;31;33631;-56
2023/03/02 12:17:48;;;;;;;15.88;8.90;;;;;;;12.30;57.90;100897.84;5562680;31;33639;-56
2023/03/02 12:21:09;;;;;;;14.02;9.43;;;;;;;12.23;50.26;100894.66;5576303;31;33740;-56
2023/03/02 12:24:29;;;;;;;13.02;8.55;;;;;;;12.25;46.86;100891.69;5599036;31;33183;-56
2023/03/02 12:27:38;;;;;;;14.25;8.63;;;;;;;12.17;53.25;100885.81;5581491;31;33812;-56
2023/03/02 12:30:41;;;;;;;11.25;8.00;;;;;;;12.45;56.60;100886.19;5580111;31;33872;-56
2023/03/02 12:33:49;;;;;;;14.07;7.90;;;;;;;12.29;47.16;100884.69;5589137;31;34552;-55
2023/03/02 12:37:32;;;;;;;13.38;7.65;;;;;;;12.25;48.51;100875.56;5582209;31;33969;-56
2023/03/02 12:41:16;;;;;;;10.77;7.20;;;;;;;12.23;58.56;100871.25;5539596;31;33966;-56
2023/03/02 12:44:42;;;;;;;12.37;7.22;;;;;;;12.33;49.06;100867.72;5564123;31;33267;-56
2023/03/02 12:47:50;;;;;;;11.70;8.20;;;;;;;12.38;48.03;100864.16;5575268;31;33748;-56
2023/03/02 12:51:01;;;;;;;11.75;7.47;;;;;;;12.34;49.38;100860.44;5571444;31;33709;-56
2023/03/02 12:54:05;;;;;;;9.48;6.68;;;;;;;12.49;52.60;100852.28;5585749;31;33630;-56
2023/03/02 12:57:14;;;;;;;15.30;7.18;;;;;;;12.56;56.94;100858.13;5581052;31;33742;-56
2023/03/02 13:00:19;;;;;;;10.80;7.50;;;;;;;12.68;63.22;100858.56;5577825;31;33895;-56
2023/03/02 13:03:23;;;;;;;10.23;6.93;;;;;;;12.65;60.66;100852.97;5588712;31;33852;-57
2023/03/02 13:06:29;;;;;;;9.27;6.65;;;;;;;12.53;48.22;100845.25;5592881;31;33866;-56
2023/03/02 13:09:31;;;;;;;13.82;7.30;;;;;;;12.75;53.07;100844.78;5591444;31;33736;-56
2023/03/02 13:12:35;;;;;;;11.52;7.62;;;;;;;12.70;47.24;100845.62;5600551;31;34312;-56
2023/03/02 13:15:58;;;;;;;11.35;7.37;;;;;;;12.79;52.35;100836.97;5598471;31;33282;-56
2023/03/02 13:19:10;;;;;;;12.82;8.05;;;;;;;12.71;47.83;100830.28;5591196;31;33687;-56
2023/03/02 13:22:13;;;;;;;10.88;7.57;;;;;;;12.62;53.22;100840.06;5576218;31;33641;-55
2023/03/02 13:25:28;;;;;;;9.70;7.10;;;;;;;12.71;47.71;100832.97;5578319;31;33730;-56
2023/03/02 13:28:33;;;;;;;12.43;7.47;;;;;;;12.58;53.25;100831.75;5589402;31;34388;-56
2023/03/02 13:31:35;;;;;;;11.63;7.53;;;;;;;12.74;50.10;100818.94;5575674;31;33712;-56
2023/03/02 13:34:48;;;;;;;11.75;7.60;;;;;;;12.84;49.51;100816.16;5584033;31;33631;-56
2023/03/02 13:38:01;;;;;;;17.75;7.97;;;;;;;12.90;53.10;100817.72;5586433;31;34292;-56
2023/03/02 13:41:04;;;;;;;14.80;7.10;;;;;;;12.71;46.27;100811.44;5568314;31;34587;-57
2023/03/02 13:44:18;;;;;;;11.77;7.40;;;;;;;12.74;56.48;100808.19;5577848;31;33294;-56
2023/03/02 13:47:23;;;;;;;13.83;7.83;;;;;;;12.74;48.69;100802.03;5577106;31;33711;-56
2023/03/02 13:50:28;;;;;;;12.63;8.02;;;;;;;12.81;46.28;100791.72;5589162;31;33587;-55
2023/03/02 13:53:36;;;;;;;11.12;7.22;;;;;;;12.90;47.98;100790.00;5587066;31;33500;-56
2023/03/02 13:56:39;;;;;;;11.18;7.95;;;;;;;13.04;58.36;100790.94;5591787;31;33791;-56
2023/03/02 13:59:43;;;;;;;15.85;8.70;;;;;;;12.94;57.36;100782.97;5590974;31;34349;-56
2023/03/02 14:02:47;;;;;;;11.10;7.40;;;;;;;12.94;49.06;100777.59;5606722;31;33650;-56
2023/03/02 14:05:50;;;;;;;10.48;7.87;;;;;;;12.85;59.07;100771.25;5588806;31;33763;-56
2023/03/02 14:08:52;;;;;;;11.35;8.05;;;;;;;12.99;59.00;100766.78;5586814;31;33728;-56
2023/03/02 14:11:56;;;;;;;13.62;7.47;;;;;;;12.85;48.46;100761.28;5587679;31;33710;-56
2023/03/02 14:15:02;;;;;;;12.98;7.65;;;;;;;12.91;61.51;100765.53;5589159;31;33425;-56
2023/03/02 14:18:29;;;;;;;14.18;8.48;;;;;;;13.16;52.24;100756.34;5589988;31;34104;-56
2023/03/02 14:21:32;;;;;;;14.25;7.85;;;;;;;13.13;47.31;100754.22;5570828;31;32991;-56
2023/03/02 14:24:35;;;;;;;13.27;7.72;;;;;;;13.13;47.19;100759.59;5599490;31;34402;-56
2023/03/02 14:27:37;;;;;;;11.05;7.12;;;;;;;13.17;50.43;100754.44;5595668;31;34541;-56
2023/03/02 14:30:43;;;;;;;11.75;6.93;;;;;;;13.10;49.33;100746.72;5581815;31;33887;-56
2023/03/02 14:33:45;;;;;;;11.38;7.15;;;;;;;13.19;50.67;100752.28;5581492;31;33658;-56
2023/03/02 14:36:51;;;;;;;13.00;7.12;;;;;;;13.26;62.44;100752.75;5584752;31;34432;-56
2023/03/02 14:39:54;;;;;;;17.45;7.78;;;;;;;13.29;55.10;100752.19;5584092;31;33652;-56
2023/03/02 14:42:57;;;;;;;11.82;6.82;;;;;;;13.21;55.20;100744.72;5588393;31;34181;-56
2023/03/02 14:45:59;;;;;;;15.65;7.43;;;;;;;13.09;48.40;100742.44;5579761;31;33722;-56
2023/03/02 14:49:01;;;;;;;10.38;7.10;;;;;;;13.02;46.98;100735.81;5588193;31;34372;-56
2023/03/02 14:52:06;;;;;;;11.05;7.35;;;;;;;13.15;63.14;100735.91;5584247;31;33726;-56
2023/03/02 14:55:24;;;;;;;14.82;8.50;;;;;;;13.14;48.39;100737.00;5587098;31;33310;-56
2023/03/02 14:58:32;;;;;;;12.77;7.05;;;;;;;13.13;52.23;100738.06;5581225;31;33473;-56
2023/03/02 15:01:35;;;;;;;11.70;6.70;;;;;;;13.07;58.32;100733.03;5598150;31;33751;-56
2023/03/02 15:04:37;;;;;;;9.82;6.75;;;;;;;13.02;47.99;100733.13;5569764;31;34037;-56
2023/03/02 15:07:40;;;;;;;9.32;6.70;;;;;;;13.06;49.49;100734.12;5569093;32;33717;-56
2023/03/02 15:10:42;;;;;;;15.30;6.93;;;;;;;13.17;54.23;100732.91;5596951;31;33653;-56
2023/03/02 15:13:44;;;;;;;24.17;8.60;;;;;;;13.09;51.48;100731.66;5607522;31;34461;-56
2023/03/02 15:16:46;;;;;;;11.35;7.25;;;;;;;13.10;50.21;100733.25;5607872;31;34407;-56
2023/03/02 15:19:49;;;;;;;12.48;7.22;;;;;;;12.93;57.83;100739.13;5608718;31;34295;-56
2023/03/02 15:22:51;;;;;;;13.43;6.97;;;;;;;12.78;48.44;100733.94;5608388;31;33697;-56
2023/03/02 15:26:01;;;;;;;16.10;7.20;;;;;;;12.79;48.66;100730.12;5608122;31;33619;-56
2023/03/02 15:29:03;;;;;;;11.95;6.93;;;;;;;12.74;51.46;100734.75;5604494;31;33686;-56
2023/03/02 15:32:06;;;;;;;13.32;6.93;;;;;;;12.93;64.20;100738.31;5588223;31;33185;-56
2023/03/02 15:35:10;;;;;;;11.18;6.93;;;;;;;13.03;60.28;100735.50;5588073;31;33690;-56
2023/03/02 15:38:13;;;;;;;10.45;6.87;;;;;;;12.84;54.88;100738.13;5588929;31;33771;-56
2023/03/02 15:41:16;;;;;;;13.88;7.68;;;;;;;12.81;54.22;100740.59;5588088;31;34325;-56
2023/03/02 15:44:22;;;;;;;15.52;7.37;;;;;;;12.72;60.90;100743.13;5600729;31;34436;-56
2023/03/02 15:47:24;;;;;;;12.57;7.47;;;;;;;12.64;57.62;100752.59;5578292;31;34473;-56
2023/03/02 15:50:27;;;;;;;15.02;8.20;;;;;;;12.61;59.97;100750.47;5574381;31;33959;-56
2023/03/02 15:53:31;;;;;;;18.67;8.25;;;;;;;12.61;51.85;100745.09;5585161;31;33629;-56
2023/03/02 15:56:34;;;;;;;21.23;8.30;;;;;;;12.48;50.61;100743.09;5587801;31;34630;-56
2023/03/02 15:59:45;;;;;;;13.75;7.80;;;;;;;12.49;51.28;100747.41;5596478;31;33408;-56
2023/03/02 16:02:48;;;;;;;13.70;7.70;;;;;;;12.52;60.31;100746.84;5602579;31;33775;-56
2023/03/02 16:05:51;;;;;;;12.23;7.85;;;;;;;12.56;50.49;100750.56;5608268;31;34393;-56
2023/03/02 16:08:53;;;;;;;14.68;7.50;;;;;;;12.39;53.08;100756.34;5608407;31;33235;-56
2023/03/02 16:11:56;;;;;;;14.30;7.47;;;;;;;12.35;51.01;100760.72;5608082;31;34428;-56
2023/03/02 16:14:58;;;;;;;22.85;8.10;;;;;;;12.31;50.64;100748.87;5608215;31;33731;-56
2023/03/02 16:18:01;;;;;;;12.07;7.20;;;;;;;12.28;55.92;100751.34;5608521;31;33661;-56
2023/03/02 16:21:03;;;;;;;12.23;7.68;;;;;;;12.22;51.11;100764.03;5608185;31;33354;-56
2023/03/02 16:24:06;;;;;;;14.07;6.72;;;;;;;12.13;50.97;100754.97;5608460;31;33691;-56
2023/03/02 16:27:09;;;;;;;16.12;7.57;;;;;;;12.05;52.50;100761.72;5608394;31;34376;-56
2023/03/02 16:30:12;;;;;;;15.07;7.75;;;;;;;11.97;50.71;100760.44;5608131;31;33593;-56
2023/03/02 16:33:16;;;;;;;13.55;8.10;;;;;;;11.93;49.89;100759.41;5608527;31;34354;-56
2023/03/02 16:36:20;;;;;;;12.48;8.02;;;;;;;11.87;50.27;100763.22;5607889;31;34386;-56
2023/03/02 16:39:22;;;;;;;14.68;8.35;;;;;;;11.77;51.25;100763.25;5608067;31;33640;-56
2023/03/02 16:42:27;;;;;;;12.57;7.87;;;;;;;11.63;51.25;100760.38;5608101;31;33617;-56
2023/03/02 16:45:29;;;;;;;15.30;8.25;;;;;;;11.60;51.13;100769.00;5607970;31;33636;-55
2023/03/02 16:48:31;;;;;;;16.23;7.53;;;;;;;11.48;52.53;100765.81;5608131;31;33715;-56
2023/03/02 16:51:33;;;;;;;14.82;8.25;;;;;;;11.40;51.77;100777.97;5607400;31;34825;-56
2023/03/02 16:54:36;;;;;;;61.15;44.38;;;;;;;11.33;52.78;100772.09;5608112;31;34429;-55
